Time;durP1;ratioP1;P1;durP2;ratioP2;P2;SDS_P1;SDS_P2;PMS_P1;PMS_P2;Temp;Humidity;BMP_temperature;BMP_pressure;BME280_temperature;BME280_humidity;BME280_pressure;Samples;Min_cycle;Max_cycle;Signal;HPM_P1;HPM_P2
2024/01/01 00:02:23;;;;;;;9.80;6.20;;;5.10;99.90;;;;;;5090128;28;20188;-74
2024/01/01 00:04:49;;;;;;;7.97;5.50;;;5.10;99.90;;;;;;5089273;28;20181;-74
2024/01/01 00:07:14;;;;;;;7.40;5.50;;;5.20;99.90;;;;;;5089950;28;20943;-74
2024/01/01 00:09:40;;;;;;;12.47;6.47;;;5.20;99.90;;;;;;5088573;28;20289;-74
2024/01/01 00:12:08;;;;;;;12.27;7.87;;;5.30;99.90;;;;;;5088602;28;20181;-74
2024/01/01 00:14:34;;;;;;;9.60;6.03;;;5.30;99.90;;;;;;5089537;28;20200;-74
2024/01/01 00:17:00;;;;;;;9.07;6.20;;;5.30;99.90;;;;;;5089399;28;20755;-74
2024/01/01 00:19:26;;;;;;;8.13;5.23;;;5.30;99.90;;;;;;5088270;28;20748;-74
2024/01/01 00:21:51;;;;;;;36.20;17.17;;;5.40;99.90;;;;;;5089496;28;20452;-74
2024/01/01 00:24:17;;;;;;;10.57;5.80;;;5.40;99.90;;;;;;5089506;28;20706;-75
2024/01/01 00:26:44;;;;;;;13.43;5.93;;;5.50;99.90;;;;;;5087671;28;20292;-74
2024/01/01 00:29:09;;;;;;;9.83;7.50;;;5.60;99.90;;;;;;5087892;28;20931;-74
2024/01/01 00:31:37;;;;;;;15.17;5.60;;;5.60;99.90;;;;;;5087720;28;20549;-73
2024/01/01 00:34:03;;;;;;;9.80;5.60;;;5.60;99.90;;;;;;5087647;28;20192;-74
2024/01/01 00:36:28;;;;;;;8.90;6.03;;;5.60;99.90;;;;;;5070623;28;20464;-75
2024/01/01 00:38:54;;;;;;;18.03;5.80;;;5.60;99.90;;;;;;5089129;28;20616;-75
2024/01/01 00:41:19;;;;;;;9.60;6.47;;;5.60;99.90;;;;;;5088903;28;20218;-75
2024/01/01 00:43:45;;;;;;;12.83;6.30;;;5.60;99.90;;;;;;5070935;28;20674;-75
2024/01/01 00:46:11;;;;;;;13.90;7.70;;;5.60;99.90;;;;;;5088753;28;20576;-75
2024/01/01 00:48:37;;;;;;;11.03;6.40;;;5.60;99.90;;;;;;5087380;28;20575;-75
2024/01/01 00:51:03;;;;;;;7.88;5.95;;;5.60;99.90;;;;;;5088628;28;20459;-75
2024/01/01 00:53:29;;;;;;;11.90;6.17;;;5.50;99.90;;;;;;5088865;28;20197;-75
2024/01/01 00:55:54;;;;;;;10.80;6.83;;;5.60;99.90;;;;;;5088651;28;20202;-75
2024/01/01 00:58:20;;;;;;;10.33;5.97;;;5.40;99.90;;;;;;5087620;28;20186;-75
2024/01/01 01:00:45;;;;;;;10.40;5.60;;;5.40;99.90;;;;;;5070496;28;20209;-75
2024/01/01 01:03:11;;;;;;;14.30;6.43;;;5.40;99.90;;;;;;5087700;28;20290;-75
2024/01/01 01:05:37;;;;;;;11.60;5.73;;;5.40;99.90;;;;;;5088462;28;20197;-75
2024/01/01 01:08:03;;;;;;;8.90;6.47;;;5.40;99.90;;;;;;5087236;28;20201;-75
2024/01/01 01:10:28;;;;;;;10.53;6.30;;;5.30;99.90;;;;;;5088359;28;20217;-75
2024/01/01 01:12:54;;;;;;;12.20;6.50;;;5.20;99.90;;;;;;5087118;28;20188;-75
2024/01/01 01:15:21;;;;;;;11.77;6.73;;;5.20;99.90;;;;;;5088517;28;20218;-75
2024/01/01 01:17:47;;;;;;;8.30;5.63;;;5.20;99.90;;;;;;5088447;28;20263;-74
2024/01/01 01:20:12;;;;;;;17.30;7.77;;;5.20;99.90;;;;;;5086898;28;20849;-74
2024/01/01 01:22:38;;;;;;;9.97;6.10;;;5.20;99.90;;;;;;5088540;28;20296;-74
2024/01/01 01:25:04;;;;;;;7.97;5.00;;;5.20;99.90;;;;;;5086921;28;20223;-75
2024/01/01 01:27:29;;;;;;;11.03;5.07;;;5.20;99.90;;;;;;5088490;28;20209;-74
2024/01/01 01:29:55;;;;;;;7.90;4.13;;;5.20;99.90;;;;;;5087058;28;20231;-74
2024/01/01 01:32:21;;;;;;;6.77;4.13;;;5.30;99.90;;;;;;5088930;28;20189;-74
2024/01/01 01:34:46;;;;;;;6.10;3.60;;;5.30;99.90;;;;;;5087240;28;20546;-74
2024/01/01 01:37:12;;;;;;;8.57;4.57;;;5.30;99.90;;;;;;5070537;28;20232;-74
2024/01/01 01:39:37;;;;;;;11.17;4.70;;;5.40;99.90;;;;;;5087450;28;20195;-74
2024/01/01 01:42:03;;;;;;;10.20;4.23;;;5.40;99.90;;;;;;5087489;28;20197;-75
2024/01/01 01:44:29;;;;;;;9.70;4.13;;;5.40;99.90;;;;;;5087751;28;20637;-74
2024/01/01 01:46:55;;;;;;;9.40;4.20;;;5.50;99.90;;;;;;5087511;28;20216;-74
2024/01/01 01:49:21;;;;;;;7.35;3.25;;;5.70;99.90;;;;;;5087295;28;20518;-74
2024/01/01 01:51:48;;;;;;;8.17;4.40;;;5.90;99.90;;;;;;5088873;28;20271;-75
2024/01/01 01:54:15;;;;;;;6.75;3.90;;;5.70;99.90;;;;;;5088950;28;20183;-75
2024/01/01 01:56:41;;;;;;;7.95;4.05;;;5.70;99.90;;;;;;5088821;28;20197;-75
2024/01/01 01:59:06;;;;;;;7.20;4.10;;;5.80;99.90;;;;;;5087687;28;20178;-75
2024/01/01 02:01:32;;;;;;;6.70;3.53;;;5.90;99.90;;;;;;5089059;28;20531;-74
2024/01/01 02:03:58;;;;;;;7.83;3.67;;;5.90;99.90;;;;;;5070529;28;20184;-75
2024/01/01 02:06:23;;;;;;;5.50;3.50;;;5.80;99.90;;;;;;5088561;28;20297;-74
2024/01/01 02:08:50;;;;;;;4.80;3.83;;;5.80;99.90;;;;;;5088645;28;20216;-75
2024/01/01 02:11:15;;;;;;;6.23;3.50;;;5.70;99.90;;;;;;5087065;28;20213;-74
2024/01/01 02:13:41;;;;;;;6.83;3.93;;;5.70;99.90;;;;;;5088347;28;20427;-74
2024/01/01 02:16:07;;;;;;;9.00;3.97;;;5.60;99.90;;;;;;5088423;28;20583;-74
2024/01/01 02:18:32;;;;;;;5.23;3.50;;;5.70;99.90;;;;;;5088428;28;20179;-74
2024/01/01 02:20:58;;;;;;;6.77;4.00;;;5.70;99.90;;;;;;5088487;28;20268;-74
2024/01/01 02:23:26;;;;;;;5.90;4.00;;;5.60;99.90;;;;;;5087096;28;20258;-74
2024/01/01 02:25:52;;;;;;;9.50;4.73;;;5.60;99.90;;;;;;5087119;28;20631;-74
2024/01/01 02:28:19;;;;;;;10.80;3.97;;;5.70;99.90;;;;;;5072307;28;20457;-75
2024/01/01 02:30:45;;;;;;;5.13;3.30;;;5.70;99.90;;;;;;5091683;28;20298;-74
2024/01/01 02:33:11;;;;;;;7.37;4.53;;;5.60;99.90;;;;;;5090584;28;20504;-74
2024/01/01 02:35:37;;;;;;;5.13;3.30;;;5.50;99.90;;;;;;5091428;28;20185;-74
2024/01/01 02:38:04;;;;;;;8.63;4.70;;;5.50;99.90;;;;;;5091558;28;21134;-74
2024/01/01 02:40:34;;;;;;;7.40;3.93;;;5.50;99.90;;;;;;5090269;28;20427;-74
2024/01/01 02:43:00;;;;;;;6.23;4.20;;;5.40;99.90;;;;;;5089992;28;20428;-74
2024/01/01 02:45:30;;;;;;;9.93;5.17;;;5.30;99.90;;;;;;5091317;28;20538;-74
2024/01/01 02:47:56;;;;;;;9.87;4.90;;;5.20;99.90;;;;;;5091305;28;20513;-74
2024/01/01 02:50:22;;;;;;;8.67;4.57;;;5.20;99.90;;;;;;5089704;28;20568;-74
2024/01/01 02:52:48;;;;;;;12.57;5.47;;;5.20;99.90;;;;;;5091096;28;20182;-74
2024/01/01 02:55:15;;;;;;;8.50;4.43;;;5.30;99.90;;;;;;5089731;28;20430;-74
2024/01/01 02:57:40;;;;;;;7.27;4.03;;;5.20;99.90;;;;;;5090888;28;20439;-74
2024/01/01 03:00:09;;;;;;;6.87;4.40;;;5.20;99.90;;;;;;5089767;28;20436;-74
2024/01/01 03:02:38;;;;;;;8.02;4.07;;;5.20;99.90;;;;;;5089395;28;20239;-74
2024/01/01 03:05:07;;;;;;;6.22;3.35;;;5.20;99.90;;;;;;5089736;28;21007;-76
2024/01/01 03:07:33;;;;;;;9.05;3.72;;;5.20;99.90;;;;;;5090726;28;20985;-76
2024/01/01 03:09:59;;;;;;;6.93;3.67;;;5.20;99.90;;;;;;5090855;28;20562;-74
2024/01/01 03:12:25;;;;;;;5.13;2.90;;;5.20;99.90;;;;;;5089280;28;20412;-74
2024/01/01 03:14:50;;;;;;;6.43;2.90;;;5.30;99.90;;;;;;5089116;28;20660;-74
2024/01/01 03:17:17;;;;;;;7.37;3.43;;;5.30;99.90;;;;;;5090404;28;20635;-73
2024/01/01 03:19:42;;;;;;;5.83;3.30;;;5.30;99.90;;;;;;5072357;28;20349;-74
2024/01/01 03:22:08;;;;;;;7.93;3.30;;;5.30;99.90;;;;;;5090677;28;20453;-75
2024/01/01 03:24:34;;;;;;;9.57;3.43;;;5.30;99.90;;;;;;5090656;28;20209;-74
2024/01/01 03:26:59;;;;;;;4.57;3.60;;;5.50;99.90;;;;;;5088808;28;20217;-75
2024/01/01 03:29:25;;;;;;;7.17;3.77;;;5.30;99.90;;;;;;5088984;28;20186;-75
2024/01/01 03:31:50;;;;;;;6.53;3.23;;;5.40;99.90;;;;;;5088781;28;20196;-74
2024/01/01 03:34:16;;;;;;;5.43;3.50;;;5.40;99.90;;;;;;5088776;28;20240;-75
2024/01/01 03:36:42;;;;;;;6.07;3.37;;;5.30;99.90;;;;;;5088852;28;20225;-74
2024/01/01 03:39:08;;;;;;;5.17;3.20;;;5.40;99.90;;;;;;5071426;28;20202;-74
2024/01/01 03:41:33;;;;;;;6.67;4.03;;;5.40;99.90;;;;;;5088742;28;20477;-74
2024/01/01 03:43:59;;;;;;;5.40;3.83;;;5.40;99.90;;;;;;5088943;28;21015;-74
2024/01/01 03:46:24;;;;;;;7.23;3.43;;;5.40;99.90;;;;;;5088637;28;20210;-74
2024/01/01 03:48:50;;;;;;;5.90;3.53;;;5.40;99.90;;;;;;5090163;28;20190;-74
2024/01/01 03:51:16;;;;;;;5.63;3.47;;;5.40;99.90;;;;;;5089735;28;20256;-75
2024/01/01 03:53:41;;;;;;;7.03;3.53;;;5.40;99.90;;;;;;5090107;28;20212;-75
2024/01/01 03:56:07;;;;;;;6.60;3.47;;;5.40;99.90;;;;;;5088458;28;20212;-74
2024/01/01 03:58:33;;;;;;;7.03;3.40;;;5.60;99.90;;;;;;5088480;28;20182;-75
2024/01/01 04:00:58;;;;;;;4.37;2.20;;;5.50;99.90;;;;;;5054747;28;20192;-75
2024/01/01 04:03:24;;;;;;;6.37;3.43;;;5.60;99.90;;;;;;5071473;28;20186;-74
2024/01/01 04:05:50;;;;;;;3.43;2.67;;;5.50;99.90;;;;;;5089601;28;20201;-75
2024/01/01 04:08:16;;;;;;;5.27;2.97;;;5.50;99.90;;;;;;5089743;28;20908;-75
2024/01/01 04:10:41;;;;;;;5.43;2.67;;;5.60;99.90;;;;;;5089447;28;20212;-74
2024/01/01 04:13:07;;;;;;;5.63;3.10;;;5.70;99.90;;;;;;5088014;28;20427;-75
2024/01/01 04:15:32;;;;;;;3.53;2.30;;;5.70;99.90;;;;;;5089442;28;20183;-74
2024/01/01 04:17:58;;;;;;;5.43;2.30;;;5.80;99.90;;;;;;5071367;28;20185;-74
2024/01/01 04:20:23;;;;;;;4.60;2.10;;;5.80;99.90;;;;;;5089484;28;20241;-75
2024/01/01 04:22:51;;;;;;;3.93;1.90;;;5.90;99.90;;;;;;5087889;28;20185;-75
2024/01/01 04:25:18;;;;;;;4.97;1.90;;;5.90;99.90;;;;;;5089253;28;20643;-74
2024/01/01 04:27:44;;;;;;;7.38;2.60;;;6.00;99.90;;;;;;5089152;28;20470;-75
2024/01/01 04:30:10;;;;;;;2.37;1.80;;;6.00;99.90;;;;;;5087805;28;20221;-74
2024/01/01 04:32:36;;;;;;;1.50;1.40;;;6.00;99.90;;;;;;5089083;28;20192;-74
2024/01/01 04:35:03;;;;;;;1.87;1.40;;;6.10;99.90;;;;;;5087529;28;20432;-75
2024/01/01 04:37:29;;;;;;;6.17;1.40;;;6.00;99.90;;;;;;5070744;28;20691;-75
2024/01/01 04:39:54;;;;;;;1.23;0.90;;;6.20;99.90;;;;;;5089314;28;20908;-76
2024/01/01 04:42:20;;;;;;;3.27;1.13;;;6.20;99.90;;;;;;5089179;28;20480;-75
2024/01/01 04:44:45;;;;;;;1.70;0.80;;;6.30;99.90;;;;;;5087629;28;20199;-75
2024/01/01 04:47:11;;;;;;;12.13;1.47;;;6.20;99.90;;;;;;5088924;28;20201;-75
2024/01/01 04:49:37;;;;;;;1.90;0.90;;;6.30;99.90;;;;;;5087228;28;20235;-75
2024/01/01 04:52:02;;;;;;;5.43;1.50;;;6.30;99.90;;;;;;5088756;28;20657;-75
2024/01/01 04:54:28;;;;;;;6.87;1.37;;;6.30;99.90;;;;;;5088928;28;20224;-75
2024/01/01 04:56:54;;;;;;;8.07;1.47;;;6.30;99.90;;;;;;5088760;28;20202;-75
2024/01/01 04:59:19;;;;;;;6.30;1.10;;;6.30;99.90;;;;;;5087597;28;20638;-74
2024/01/01 05:01:45;;;;;;;2.60;1.60;;;6.30;99.90;;;;;;5070570;28;20198;-74
2024/01/01 05:04:10;;;;;;;3.13;1.20;;;6.30;99.90;;;;;;5087210;28;20186;-75
2024/01/01 05:06:36;;;;;;;5.77;1.30;;;6.30;99.90;;;;;;5087159;28;20696;-75
2024/01/01 05:09:02;;;;;;;2.53;1.00;;;6.30;99.90;;;;;;5071001;28;20190;-75
2024/01/01 05:11:29;;;;;;;1.67;0.90;;;6.30;99.90;;;;;;5087019;28;20680;-75
2024/01/01 05:13:55;;;;;;;5.50;1.00;;;6.30;99.90;;;;;;5088826;28;20277;-75
2024/01/01 05:16:20;;;;;;;1.67;0.60;;;6.30;99.90;;;;;;5087301;28;20880;-75
2024/01/01 05:18:46;;;;;;;4.00;1.17;;;6.30;99.90;;;;;;5087448;28;20190;-74
2024/01/01 05:21:11;;;;;;;6.20;1.20;;;6.30;99.90;;;;;;5088607;28;20197;-75
2024/01/01 05:23:37;;;;;;;3.00;1.10;;;6.30;99.90;;;;;;5087390;28;20182;-75
2024/01/01 05:26:03;;;;;;;4.23;1.17;;;6.20;99.90;;;;;;5088538;28;20212;-75
2024/01/01 05:28:29;;;;;;;3.90;0.97;;;6.20;99.90;;;;;;5088760;28;20195;-74
2024/01/01 05:30:55;;;;;;;3.53;0.80;;;6.20;99.90;;;;;;5088441;28;20463;-74
2024/01/01 05:36:43;;;;;;;5.27;1.17;;;6.10;99.90;;;;;;5088854;28;20463;-74
2024/01/01 05:39:09;;;;;;;6.03;1.40;;;6.10;99.90;;;;;;5087631;28;20515;-74
2024/01/01 05:41:34;;;;;;;4.60;0.90;;;6.10;99.90;;;;;;5089063;28;20189;-74
2024/01/01 05:44:01;;;;;;;2.50;1.07;;;6.20;99.90;;;;;;5087776;28;20646;-74
2024/01/01 05:46:26;;;;;;;4.60;0.90;;;6.10;99.90;;;;;;5087578;28;20323;-74
2024/01/01 05:48:52;;;;;;;4.20;0.87;;;6.20;99.90;;;;;;5089050;28;20527;-74
2024/01/01 05:51:18;;;;;;;2.77;1.00;;;6.20;99.90;;;;;;5087161;28;20696;-75
2024/01/01 05:53:44;;;;;;;9.83;3.00;;;6.20;99.90;;;;;;5088497;28;20266;-74
2024/01/01 05:56:09;;;;;;;6.10;1.27;;;6.30;99.90;;;;;;5086786;28;20444;-75
2024/01/01 05:58:35;;;;;;;7.40;1.40;;;6.30;99.90;;;;;;5086910;28;20209;-75
2024/01/01 06:01:00;;;;;;;3.03;1.00;;;6.30;99.90;;;;;;5086909;28;20201;-75
2024/01/01 06:03:26;;;;;;;5.80;1.17;;;6.30;99.90;;;;;;5089507;28;20190;-75
2024/01/01 06:05:53;;;;;;;5.90;1.10;;;6.30;99.90;;;;;;5091962;28;20206;-75
2024/01/01 06:08:18;;;;;;;7.10;1.40;;;6.30;99.90;;;;;;5092023;28;20186;-75
2024/01/01 06:10:44;;;;;;;7.87;0.80;;;6.30;99.90;;;;;;5090418;28;20472;-74
2024/01/01 06:13:10;;;;;;;9.33;1.17;;;6.30;99.90;;;;;;5090644;28;20193;-74
2024/01/01 06:15:35;;;;;;;12.27;2.17;;;6.40;99.90;;;;;;5092012;28;20232;-74
2024/01/01 06:18:01;;;;;;;5.57;1.10;;;6.50;99.90;;;;;;5091739;28;20185;-75
2024/01/01 06:20:26;;;;;;;5.90;0.73;;;6.40;99.90;;;;;;5090505;28;20575;-75
2024/01/01 06:22:53;;;;;;;3.60;0.97;;;6.40;99.90;;;;;;5091762;28;20197;-74
2024/01/01 06:25:18;;;;;;;6.00;1.30;;;6.40;99.90;;;;;;5091581;28;20690;-74
2024/01/01 06:27:44;;;;;;;6.33;1.00;;;6.40;99.90;;;;;;5089887;28;20440;-74
2024/01/01 06:30:10;;;;;;;3.27;1.00;;;6.30;99.90;;;;;;5091545;28;20271;-74
2024/01/01 06:32:35;;;;;;;3.37;0.80;;;6.40;99.90;;;;;;5091507;28;20183;-74
2024/01/01 06:35:01;;;;;;;8.30;1.10;;;6.30;99.90;;;;;;5091734;28;20608;-74
2024/01/01 06:37:27;;;;;;;2.77;1.00;;;6.30;99.90;;;;;;5072796;28;20225;-74
2024/01/01 06:39:52;;;;;;;6.30;1.17;;;6.30;99.90;;;;;;5091487;28;20822;-75
2024/01/01 06:42:18;;;;;;;3.30;1.00;;;6.40;99.90;;;;;;5091268;28;20541;-74
2024/01/01 06:44:44;;;;;;;7.67;1.63;;;6.20;99.90;;;;;;5073130;28;20270;-74
2024/01/01 06:47:09;;;;;;;7.00;1.13;;;6.20;99.90;;;;;;5091149;28;20844;-75
2024/01/01 06:49:35;;;;;;;6.20;1.20;;;6.20;99.90;;;;;;5073049;28;20239;-75
2024/01/01 06:52:03;;;;;;;4.40;0.90;;;6.20;99.90;;;;;;5091253;28;20192;-75
2024/01/01 06:54:28;;;;;;;6.07;0.80;;;6.20;99.90;;;;;;5073137;28;20564;-75
2024/01/01 06:56:54;;;;;;;2.57;0.90;;;6.20;99.90;;;;;;5072761;28;20485;-75
2024/01/01 06:59:26;;;;;;;3.93;1.10;;;6.20;99.90;;;;;;5091076;28;20183;-76
2024/01/01 07:01:52;;;;;;;7.10;1.10;;;6.10;99.90;;;;;;5089436;28;20548;-75
2024/01/01 07:04:18;;;;;;;1.60;1.00;;;6.10;99.90;;;;;;5091267;28;20503;-73
2024/01/01 07:06:44;;;;;;;4.33;1.10;;;6.10;99.90;;;;;;5090548;28;20229;-74
2024/01/01 07:09:10;;;;;;;2.30;0.80;;;6.10;99.90;;;;;;5089448;28;20448;-75
2024/01/01 07:11:36;;;;;;;9.90;1.30;;;6.10;99.90;;;;;;5089245;28;20494;-74
2024/01/01 07:14:01;;;;;;;3.23;1.30;;;6.10;99.90;;;;;;5090597;28;20185;-74
2024/01/01 07:16:27;;;;;;;9.77;1.70;;;6.10;99.90;;;;;;5090629;28;20289;-75
2024/01/01 07:18:53;;;;;;;5.17;1.10;;;6.20;99.90;;;;;;5072575;28;20178;-74
2024/01/01 07:21:18;;;;;;;6.00;1.17;;;6.20;99.90;;;;;;5089144;28;20427;-74
2024/01/01 07:23:44;;;;;;;11.03;1.60;;;6.20;99.90;;;;;;5089177;28;20178;-74
2024/01/01 07:26:10;;;;;;;5.80;1.60;;;6.20;99.90;;;;;;5072347;28;20684;-75
2024/01/01 07:28:36;;;;;;;4.33;1.27;;;6.20;99.90;;;;;;5090498;28;20203;-74
2024/01/01 07:31:01;;;;;;;4.90;1.13;;;6.20;99.90;;;;;;5090217;28;20467;-74
2024/01/01 07:33:27;;;;;;;8.00;1.67;;;6.30;99.90;;;;;;5088922;28;20266;-74
2024/01/01 07:35:52;;;;;;;4.17;1.33;;;6.30;99.90;;;;;;5090244;28;20203;-74
2024/01/01 07:38:18;;;;;;;3.60;1.10;;;6.30;99.90;;;;;;5089039;28;20186;-75
2024/01/01 07:40:43;;;;;;;5.23;1.07;;;6.30;99.90;;;;;;5090646;28;20197;-75
2024/01/01 07:43:09;;;;;;;4.23;1.17;;;6.30;99.90;;;;;;5088917;28;20194;-75
2024/01/01 07:45:35;;;;;;;8.80;1.00;;;6.30;99.90;;;;;;5071940;28;20186;-75
2024/01/01 07:48:01;;;;;;;5.20;1.10;;;6.30;99.90;;;;;;5090265;28;20511;-75
2024/01/01 07:50:26;;;;;;;3.67;0.87;;;6.30;99.90;;;;;;5088677;28;20210;-74
2024/01/01 07:52:52;;;;;;;5.03;1.50;;;6.30;99.90;;;;;;5088719;28;20182;-75
2024/01/01 07:55:18;;;;;;;21.00;7.13;;;6.20;99.90;;;;;;5090075;28;20182;-75
2024/01/01 07:57:46;;;;;;;4.20;1.63;;;6.10;99.90;;;;;;5090014;28;20249;-74
2024/01/01 08:00:12;;;;;;;3.03;1.20;;;6.20;99.90;;;;;;5089871;28;20419;-75
2024/01/01 08:02:38;;;;;;;5.93;1.20;;;6.10;99.90;;;;;;5088558;28;20420;-74
2024/01/01 08:05:05;;;;;;;5.13;1.47;;;6.20;99.90;;;;;;5089797;28;20420;-74
2024/01/01 08:07:30;;;;;;;3.43;1.53;;;6.40;99.90;;;;;;5089912;28;20465;-74
2024/01/01 08:09:56;;;;;;;3.60;1.07;;;6.80;99.90;;;;;;5087979;28;20478;-74
2024/01/01 08:12:21;;;;;;;2.40;1.07;;;7.40;99.90;;;;;;5089718;28;20272;-75
2024/01/01 08:14:48;;;;;;;6.10;1.07;;;7.70;99.90;;;;;;5088295;28;20174;-74
2024/01/01 08:17:13;;;;;;;6.93;1.80;;;7.60;99.90;;;;;;5089605;28;20279;-75
2024/01/01 08:19:39;;;;;;;4.43;1.13;;;7.40;99.90;;;;;;5089316;28;20907;-74
2024/01/01 08:22:04;;;;;;;7.53;1.63;;;7.20;99.90;;;;;;5089576;28;20182;-74
2024/01/01 08:24:30;;;;;;;8.20;1.40;;;7.10;99.90;;;;;;5088023;28;20235;-74
2024/01/01 08:26:56;;;;;;;3.97;1.30;;;7.10;99.90;;;;;;5089009;28;20251;-74
2024/01/01 08:29:21;;;;;;;3.50;1.17;;;7.00;99.90;;;;;;5088282;28;20178;-74
2024/01/01 08:31:47;;;;;;;13.43;1.43;;;7.00;99.90;;;;;;5088010;28;20471;-74
2024/01/01 08:34:13;;;;;;;7.20;1.60;;;6.90;99.90;;;;;;5089511;28;20190;-74
2024/01/01 08:36:38;;;;;;;3.60;1.10;;;6.70;99.90;;;;;;5088092;28;20222;-74
2024/01/01 08:39:04;;;;;;;1.40;0.63;;;6.70;99.90;;;;;;5089854;28;20209;-74
2024/01/01 08:41:29;;;;;;;6.33;1.60;;;6.70;99.90;;;;;;5071502;28;20657;-73
2024/01/01 08:43:57;;;;;;;4.47;1.10;;;6.70;99.90;;;;;;5089817;28;20186;-74
2024/01/01 08:46:26;;;;;;;8.63;1.20;;;6.80;99.90;;;;;;5088413;28;20376;-73
2024/01/01 08:48:52;;;;;;;2.03;0.70;;;6.90;99.90;;;;;;5089743;28;20417;-74
2024/01/01 08:51:18;;;;;;;4.20;1.60;;;6.90;99.90;;;;;;5088181;28;20471;-74
2024/01/01 08:53:44;;;;;;;3.97;0.90;;;6.90;99.90;;;;;;5088005;28;20224;-74
2024/01/01 08:56:10;;;;;;;2.80;0.80;;;7.40;99.90;;;;;;5087727;28;20448;-75
2024/01/01 08:58:35;;;;;;;2.53;0.70;;;7.40;99.90;;;;;;5086903;28;20960;-74
2024/01/01 09:01:01;;;;;;;2.10;1.00;;;8.00;99.90;;;;;;5086694;28;20190;-74
2024/01/01 09:03:29;;;;;;;2.30;1.03;;;8.50;99.90;;;;;;5087756;28;20547;-74
2024/01/01 09:05:57;;;;;;;4.20;1.20;;;8.70;99.90;;;;;;5087683;28;20213;-75
2024/01/01 09:08:23;;;;;;;6.73;1.07;;;8.20;99.90;;;;;;5069703;28;20436;-75
2024/01/01 09:10:49;;;;;;;1.90;0.57;;;8.10;99.90;;;;;;5069288;28;20468;-73
2024/01/01 09:13:14;;;;;;;5.53;0.63;;;8.20;99.90;;;;;;5087767;28;20411;-73
2024/01/01 09:15:40;;;;;;;4.37;0.87;;;8.00;99.90;;;;;;5087135;28;20208;-74
2024/01/01 09:18:07;;;;;;;3.33;1.00;;;8.30;99.90;;;;;;5085689;28;20564;-74
2024/01/01 09:20:36;;;;;;;4.33;1.27;;;8.20;99.90;;;;;;5085984;28;20227;-73
2024/01/01 09:23:01;;;;;;;5.13;0.80;;;8.30;99.90;;;;;;5087545;28;20428;-74
2024/01/01 09:25:27;;;;;;;3.53;1.23;;;8.30;99.90;;;;;;5088643;28;20416;-74
2024/01/01 09:27:53;;;;;;;1.50;0.70;;;8.20;99.90;;;;;;5086211;28;20192;-74
2024/01/01 09:30:18;;;;;;;3.77;1.27;;;8.00;99.90;;;;;;5087424;28;20310;-74
2024/01/01 09:32:44;;;;;;;3.90;1.20;;;8.10;99.90;;;;;;5069197;28;20536;-74
2024/01/01 09:35:10;;;;;;;3.53;0.87;;;7.70;99.90;;;;;;5086357;28;20182;-74
2024/01/01 09:37:39;;;;;;;2.60;0.60;;;7.70;99.90;;;;;;5088823;28;20289;-74
2024/01/01 09:40:05;;;;;;;7.10;0.70;;;7.80;99.90;;;;;;5073417;28;20687;-74
2024/01/01 09:42:31;;;;;;;2.60;0.70;;;7.80;99.90;;;;;;5091915;28;20428;-73
2024/01/01 09:44:57;;;;;;;1.00;0.60;;;8.60;99.90;;;;;;5091856;28;20428;-73
2024/01/01 09:47:22;;;;;;;1.63;0.93;;;9.20;99.90;;;;;;5091827;28;20207;-73
2024/01/01 09:49:48;;;;;;;3.20;1.10;;;8.90;99.90;;;;;;5091639;28;20190;-75
2024/01/01 09:52:14;;;;;;;2.90;1.10;;;8.90;99.90;;;;;;5090048;28;20187;-75
2024/01/01 09:54:43;;;;;;;3.33;1.00;;;8.50;99.90;;;;;;5089900;28;20213;-74
2024/01/01 09:57:09;;;;;;;3.60;0.70;;;8.40;99.90;;;;;;5089799;28;20428;-74
2024/01/01 09:59:36;;;;;;;3.60;1.00;;;8.40;99.90;;;;;;5091336;28;20420;-74
2024/01/01 10:02:09;;;;;;;2.40;0.70;;;9.10;99.90;;;;;;5091121;28;20186;-73
2024/01/01 10:04:36;;;;;;;1.93;1.00;;;10.70;99.90;;;;;;5091241;28;20420;-73
2024/01/01 10:07:02;;;;;;;2.40;0.70;;;11.50;99.90;;;;;;5090901;28;20821;-74
2024/01/01 10:09:28;;;;;;;9.97;1.10;;;12.10;99.90;;;;;;5091078;28;20557;-74
2024/01/01 10:12:15;;;;;;;2.87;0.80;;;11.80;99.60;;;;;;5089119;28;20217;-74
2024/01/01 10:14:49;;;;;;;9.70;0.93;;;11.80;99.90;;;;;;5090320;28;20473;-74
2024/01/01 10:17:17;;;;;;;3.97;1.40;;;11.80;99.90;;;;;;5072143;28;20444;-74
2024/01/01 10:19:55;;;;;;;4.10;0.90;;;12.30;99.90;;;;;;5090475;28;20415;-74
2024/01/01 10:22:21;;;;;;;3.47;0.80;;;13.00;97.00;;;;;;5090406;28;20926;-74
2024/01/01 10:24:55;;;;;;;2.00;0.80;;;13.00;94.40;;;;;;5090337;28;20425;-73
2024/01/01 10:27:22;;;;;;;2.50;0.80;;;13.10;95.00;;;;;;5088832;28;20447;-73
2024/01/01 10:29:48;;;;;;;7.70;1.13;;;12.60;94.90;;;;;;5088872;28;20980;-73
2024/01/01 10:32:16;;;;;;;3.43;1.03;;;12.70;93.60;;;;;;5090296;28;20485;-73
2024/01/01 10:34:44;;;;;;;4.47;1.20;;;13.00;94.10;;;;;;5088911;28;20930;-73
2024/01/01 10:37:10;;;;;;;4.30;0.90;;;13.30;93.30;;;;;;5088783;28;20612;-72
2024/01/01 10:39:38;;;;;;;3.87;1.47;;;14.00;93.00;;;;;;5090406;28;20502;-73
2024/01/01 10:42:05;;;;;;;3.63;1.00;;;14.10;91.20;;;;;;5090234;28;20446;-73
2024/01/01 10:44:31;;;;;;;2.43;0.87;;;13.80;91.60;;;;;;5090144;28;20473;-73
2024/01/01 10:46:58;;;;;;;3.00;1.50;;;12.70;91.60;;;;;;5088628;28;20448;-73
2024/01/01 10:49:31;;;;;;;27.43;15.17;;;14.10;92.70;;;;;;5071625;28;20193;-73
2024/01/01 10:52:08;;;;;;;3.67;1.20;;;15.30;91.00;;;;;;5072089;28;20941;-73
2024/01/01 10:55:12;;;;;;;3.90;1.00;;;15.90;88.00;;;;;;5090216;28;20515;-73
2024/01/01 10:57:50;;;;;;;5.67;1.20;;;15.10;82.30;;;;;;5047223;28;20450;-73
2024/01/01 11:00:43;;;;;;;6.43;1.07;;;16.40;86.90;;;;;;5085952;28;20465;-74
2024/01/01 11:03:13;;;;;;;6.73;1.70;;;16.70;83.20;;;;;;5090137;28;20425;-72
2024/01/01 11:05:39;;;;;;;6.07;1.37;;;16.60;82.80;;;;;;5090114;28;20790;-74
2024/01/01 11:08:05;;;;;;;4.20;1.20;;;16.50;82.30;;;;;;5088666;28;20419;-71
2024/01/01 11:10:49;;;;;;;4.23;1.40;;;16.20;81.70;;;;;;5090109;28;20217;-72
2024/01/01 11:13:26;;;;;;;9.30;1.50;;;16.00;79.90;;;;;;5088934;28;20179;-73
2024/01/01 11:16:03;;;;;;;8.10;2.20;;;15.60;79.70;;;;;;5090138;28;20434;-74
2024/01/01 11:18:34;;;;;;;4.27;1.20;;;15.30;81.30;;;;;;5089949;28;20405;-74
2024/01/01 11:21:06;;;;;;;3.10;1.30;;;15.40;82.90;;;;;;5090110;28;20420;-74
2024/01/01 11:23:42;;;;;;;2.60;0.80;;;15.50;81.70;;;;;;5089818;28;20421;-74
2024/01/01 11:26:23;;;;;;;4.80;1.50;;;15.40;79.40;;;;;;5088746;28;20446;-74
2024/01/01 11:28:54;;;;;;;5.27;1.40;;;14.40;79.40;;;;;;5090588;28;20427;-73
2024/01/01 11:31:20;;;;;;;4.70;1.47;;;14.40;83.60;;;;;;5088817;28;20464;-73
2024/01/01 11:33:57;;;;;;;5.13;1.47;;;14.00;82.40;;;;;;5089158;28;20786;-73
2024/01/01 11:36:23;;;;;;;8.27;2.10;;;13.20;84.00;;;;;;5089234;28;20491;-73
2024/01/01 11:38:49;;;;;;;5.87;1.23;;;12.90;85.60;;;;;;5089420;28;20455;-73
2024/01/01 11:41:22;;;;;;;4.97;0.93;;;12.40;86.50;;;;;;5087885;28;20213;-73
2024/01/01 11:43:47;;;;;;;7.60;1.57;;;12.50;88.30;;;;;;5089001;28;20772;-73
2024/01/01 11:46:25;;;;;;;5.53;1.00;;;12.50;89.40;;;;;;5087445;28;20448;-73
2024/01/01 11:48:58;;;;;;;7.10;1.37;;;12.80;88.90;;;;;;5070567;28;20217;-74
2024/01/01 11:51:24;;;;;;;6.67;1.67;;;12.70;88.80;;;;;;5087474;28;20550;-74
2024/01/01 11:54:06;;;;;;;5.37;1.20;;;12.70;89.80;;;;;;5087610;28;20532;-74
2024/01/01 11:56:33;;;;;;;2.73;1.17;;;12.40;90.20;;;;;;5089711;28;20443;-73
2024/01/01 11:58:59;;;;;;;7.73;1.20;;;11.70;90.30;;;;;;5088784;28;20930;-73
2024/01/01 12:01:25;;;;;;;4.30;1.03;;;10.70;91.80;;;;;;5089327;28;20484;-74
2024/01/01 12:03:51;;;;;;;3.67;1.07;;;10.60;94.20;;;;;;5089680;28;20432;-73
2024/01/01 12:06:17;;;;;;;4.07;1.10;;;10.40;95.80;;;;;;5090030;28;20445;-73
2024/01/01 12:08:42;;;;;;;3.23;1.10;;;10.40;97.30;;;;;;5088574;28;20421;-72
2024/01/01 12:11:08;;;;;;;3.63;1.10;;;10.30;98.90;;;;;;5088573;28;20470;-74
2024/01/01 12:13:34;;;;;;;2.90;1.40;;;10.40;99.40;;;;;;5089615;28;20213;-72
2024/01/01 12:16:18;;;;;;;4.53;0.90;;;10.30;98.60;;;;;;5089567;28;20194;-74
2024/01/01 12:18:43;;;;;;;8.50;1.73;;;10.10;98.70;;;;;;5087864;28;20186;-73
2024/01/01 12:21:09;;;;;;;6.83;1.50;;;9.70;99.90;;;;;;5089467;28;20415;-73
2024/01/01 12:23:36;;;;;;;5.43;1.20;;;9.70;99.90;;;;;;5089105;28;20190;-73
2024/01/01 12:26:05;;;;;;;8.87;1.50;;;9.70;99.90;;;;;;5088597;28;20569;-73
2024/01/01 12:28:31;;;;;;;7.10;1.53;;;9.30;99.90;;;;;;5087269;28;20421;-73
2024/01/01 12:31:00;;;;;;;9.87;1.50;;;9.50;99.90;;;;;;5088788;28;20467;-73
2024/01/01 12:33:25;;;;;;;9.03;1.90;;;9.40;99.90;;;;;;5085361;28;20361;-73
2024/01/01 12:35:51;;;;;;;7.43;1.40;;;9.50;99.90;;;;;;5066169;28;20456;-73
2024/01/01 12:38:18;;;;;;;7.03;1.80;;;9.70;99.90;;;;;;5084469;28;20726;-73
2024/01/01 12:40:43;;;;;;;8.13;1.23;;;9.80;99.90;;;;;;5087960;28;20666;-73
2024/01/01 12:43:09;;;;;;;9.33;1.60;;;9.60;99.90;;;;;;5070038;28;20423;-73
2024/01/01 12:45:34;;;;;;;5.73;1.47;;;9.50;99.90;;;;;;5088121;28;20186;-74
2024/01/01 12:48:00;;;;;;;7.97;1.53;;;9.60;99.90;;;;;;5086806;28;20188;-73
2024/01/01 12:50:26;;;;;;;4.30;1.10;;;9.50;99.90;;;;;;5086405;28;20208;-73
2024/01/01 12:52:52;;;;;;;8.90;2.17;;;9.50;99.90;;;;;;5086573;28;20205;-73
2024/01/01 12:55:18;;;;;;;7.53;1.37;;;9.40;99.90;;;;;;5086565;28;20931;-73
2024/01/01 12:57:43;;;;;;;9.40;1.23;;;9.30;99.90;;;;;;5086313;28;20215;-73